Time;durP1;ratioP1;P1;durP2;ratioP2;P2;SDS_P1;SDS_P2;PMS_P1;PMS_P2;Temp;Humidity;BMP_temperature;BMP_pressure;BME280_temperature;BME280_humidity;BME280_pressure;Samples;Min_cycle;Max_cycle;Signal;HPM_P1;HPM_P2
2022/08/10 00:00:22;;;;;;;;;;;;;;;25.10;54.15;100847.63;7403412;19;1825;-34
2022/08/10 00:02:56;;;;;;;;;;;;;;;25.00;54.43;100848.66;7403610;19;1677;-34
2022/08/10 00:05:25;;;;;;;;;;;;;;;25.13;54.33;100847.28;7404417;19;1091;-34
2022/08/10 00:07:54;;;;;;;;;;;;;;;24.98;54.50;100849.84;7402400;19;1865;-34
2022/08/10 00:10:23;;;;;;;;;;;;;;;25.13;54.26;100847.28;7402742;19;1772;-34
2022/08/10 00:12:51;;;;;;;;;;;;;;;25.21;54.02;100863.50;7402571;19;1871;-34
2022/08/10 00:15:20;;;;;;;;;;;;;;;25.12;54.01;100851.00;7403310;19;1905;-33
2022/08/10 00:17:48;;;;;;;;;;;;;;;25.06;54.09;100847.13;7403099;19;1816;-33
2022/08/10 00:20:19;;;;;;;;;;;;;;;25.08;53.92;100844.25;7402273;19;1885;-33
2022/08/10 00:22:47;;;;;;;;;;;;;;;25.18;54.10;100832.19;7403414;19;1576;-34
2022/08/10 00:25:16;;;;;;;;;;;;;;;25.27;53.91;100861.94;7402227;19;1921;-34
2022/08/10 00:27:44;;;;;;;;;;;;;;;25.24;54.21;100851.50;7401899;19;1861;-34
2022/08/10 00:30:13;;;;;;;;;;;;;;;25.28;53.84;100866.34;7402394;19;1707;-33
2022/08/10 00:32:41;;;;;;;;;;;;;;;25.21;53.89;100847.25;7402560;19;1702;-33
2022/08/10 00:35:10;;;;;;;;;;;;;;;25.15;54.30;100867.72;7400518;19;1618;-33
2022/08/10 00:37:41;;;;;;;;;;;;;;;25.22;53.93;100867.91;7403098;19;1517;-33
2022/08/10 00:40:10;;;;;;;;;;;;;;;25.21;54.13;100852.66;7401497;19;1859;-34
2022/08/10 00:42:38;;;;;;;;;;;;;;;25.28;54.05;100878.03;7401637;19;1937;-34
2022/08/10 00:45:07;;;;;;;;;;;;;;;25.32;53.81;100863.13;7401676;19;1563;-34
2022/08/10 00:47:36;;;;;;;;;;;;;;;25.28;53.98;100860.94;7401989;19;1856;-34
2022/08/10 00:50:05;;;;;;;;;;;;;;;25.33;53.69;100845.88;7401988;19;1885;-34
2022/08/10 00:52:33;;;;;;;;;;;;;;;25.25;54.10;100850.47;7401118;19;1910;-34
2022/08/10 00:55:04;;;;;;;;;;;;;;;25.26;54.05;100842.16;7400594;19;1823;-34
2022/08/10 00:57:33;;;;;;;;;;;;;;;25.18;54.25;100853.00;7401540;19;1920;-34
2022/08/10 01:00:01;;;;;;;;;;;;;;;25.24;54.11;100852.31;7401480;19;1641;-33
2022/08/10 01:02:31;;;;;;;;;;;;;;;25.25;54.04;100840.50;7401043;19;1554;-34
2022/08/10 01:05:00;;;;;;;;;;;;;;;25.23;54.45;100838.97;7400712;19;1719;-34
2022/08/10 01:07:33;;;;;;;;;;;;;;;25.12;54.00;100841.00;7401884;19;1647;-34
2022/08/10 01:10:12;;;;;;;;;;;;;;;25.18;53.96;100850.28;7399441;19;1818;-34
2022/08/10 01:12:43;;;;;;;;;;;;;;;25.15;53.75;100845.25;7400777;19;1709;-34
2022/08/10 01:15:16;;;;;;;;;;;;;;;25.14;53.74;100859.78;7402306;19;1832;-34
2022/08/10 01:17:51;;;;;;;;;;;;;;;25.21;53.89;100863.50;7400418;19;1839;-34
2022/08/10 01:20:22;;;;;;;;;;;;;;;25.10;54.10;100853.88;7400736;19;1744;-34
2022/08/10 01:23:10;;;;;;;;;;;;;;;25.11;53.64;100866.38;7400773;19;1570;-34
2022/08/10 01:25:50;;;;;;;;;;;;;;;25.10;53.87;100890.91;7398916;19;1653;-34
2022/08/10 01:28:25;;;;;;;;;;;;;;;25.13;54.35;100877.03;7400696;19;1855;-35
2022/08/10 01:30:59;;;;;;;;;;;;;;;25.14;54.32;100892.25;7401892;19;1091;-34
2022/08/10 01:33:31;;;;;;;;;;;;;;;25.05;54.11;100872.50;7400623;19;1866;-34
2022/08/10 01:36:01;;;;;;;;;;;;;;;25.08;54.29;100887.53;7400504;19;2093;-34
2022/08/10 01:38:30;;;;;;;;;;;;;;;25.10;53.98;100890.91;7400671;19;1660;-34
2022/08/10 01:41:00;;;;;;;;;;;;;;;25.08;54.15;100903.78;7399990;19;1689;-34
2022/08/10 01:43:30;;;;;;;;;;;;;;;24.96;54.23;100912.22;7400051;19;1811;-34
2022/08/10 01:46:03;;;;;;;;;;;;;;;24.74;54.63;100916.50;7400943;19;1433;-34
2022/08/10 01:48:31;;;;;;;;;;;;;;;24.91;54.17;100924.59;7400231;19;1865;-34
2022/08/10 01:51:14;;;;;;;;;;;;;;;24.99;53.88;100928.13;7399967;19;2028;-34
2022/08/10 01:53:46;;;;;;;;;;;;;;;25.12;54.14;100941.13;7398222;19;2036;-35
2022/08/10 01:56:15;;;;;;;;;;;;;;;25.12;53.88;100937.59;7401196;19;1903;-34
2022/08/10 01:58:45;;;;;;;;;;;;;;;25.04;53.88;100924.06;7400038;19;1909;-34
2022/08/10 02:01:18;;;;;;;;;;;;;;;25.14;54.06;100946.38;7394369;19;3337;-60
2022/08/10 02:03:48;;;;;;;;;;;;;;;25.10;54.01;100939.63;7402350;19;1337;-60
2022/08/10 02:06:17;;;;;;;;;;;;;;;25.08;54.04;100947.06;7405342;19;1352;-60
2022/08/10 02:08:48;;;;;;;;;;;;;;;25.01;54.00;100950.47;7409516;19;1867;-60
2022/08/10 02:11:18;;;;;;;;;;;;;;;24.98;53.97;100958.06;7411749;19;1529;-60
2022/08/10 02:13:47;;;;;;;;;;;;;;;25.05;54.10;100972.63;7410925;19;1706;-60
2022/08/10 02:16:20;;;;;;;;;;;;;;;25.04;53.86;100959.25;7410780;19;1498;-60
2022/08/10 02:18:49;;;;;;;;;;;;;;;25.03;53.93;100974.66;7410943;19;1330;-61
2022/08/10 02:21:18;;;;;;;;;;;;;;;25.05;54.14;100980.72;7410431;19;1605;-61
2022/08/10 02:23:47;;;;;;;;;;;;;;;25.01;53.80;100958.56;7410640;19;1421;-60
2022/08/10 02:26:17;;;;;;;;;;;;;;;25.02;53.93;100960.25;7409719;19;1486;-60
2022/08/10 02:28:46;;;;;;;;;;;;;;;25.03;54.15;100971.94;7409239;19;1846;-60
2022/08/10 02:31:15;;;;;;;;;;;;;;;24.97;54.29;100961.81;7409575;19;1529;-61
2022/08/10 02:33:47;;;;;;;;;;;;;;;24.94;54.48;100962.97;7409551;19;1493;-60
2022/08/10 02:36:16;;;;;;;;;;;;;;;24.94;54.28;100968.38;7410346;19;1394;-60
2022/08/10 02:38:47;;;;;;;;;;;;;;;24.94;54.41;100962.97;7410077;19;1333;-61
2022/08/10 02:41:16;;;;;;;;;;;;;;;24.97;54.28;100959.09;7410435;19;1364;-60
2022/08/10 02:43:48;;;;;;;;;;;;;;;25.02;54.31;100965.66;7409972;19;1655;-60
2022/08/10 02:46:22;;;;;;;;;;;;;;;25.01;54.42;100974.81;7409316;19;1560;-60
2022/08/10 02:48:57;;;;;;;;;;;;;;;25.06;54.18;100981.56;7407977;19;1836;-60
2022/08/10 02:51:27;;;;;;;;;;;;;;;24.92;54.22;100961.44;7409448;19;1619;-60
2022/08/10 02:54:02;;;;;;;;;;;;;;;25.10;54.30;100982.91;7406911;19;1660;-61
2022/08/10 02:56:35;;;;;;;;;;;;;;;25.05;54.21;100975.31;7409041;19;1556;-61
2022/08/10 02:59:07;;;;;;;;;;;;;;;25.01;54.32;100999.16;7409903;19;1560;-61
2022/08/10 03:01:38;;;;;;;;;;;;;;;25.05;54.47;100996.97;7407631;19;1316;-61
2022/08/10 03:04:10;;;;;;;;;;;;;;;25.01;54.55;100991.03;7408022;19;1750;-61
2022/08/10 03:06:40;;;;;;;;;;;;;;;25.08;54.47;100990.34;7410284;19;1517;-60
2022/08/10 03:09:11;;;;;;;;;;;;;;;25.00;54.43;100994.75;7405993;19;1854;-61
2022/08/10 03:11:41;;;;;;;;;;;;;;;24.74;55.44;100996.78;7409227;19;1455;-60
2022/08/10 03:14:11;;;;;;;;;;;;;;;24.84;55.16;101000.16;7409824;19;1635;-60
2022/08/10 03:16:40;;;;;;;;;;;;;;;24.87;55.24;100998.97;7408012;19;1775;-60
2022/08/10 03:19:12;;;;;;;;;;;;;;;24.84;55.16;101013.69;7408450;19;1635;-60
2022/08/10 03:21:41;;;;;;;;;;;;;;;24.93;55.00;100998.28;7409302;19;1272;-60
2022/08/10 03:24:12;;;;;;;;;;;;;;;25.00;55.20;101013.69;7406888;19;1521;-60
2022/08/10 03:26:40;;;;;;;;;;;;;;;24.88;55.66;101022.31;7406901;19;1754;-60
2022/08/10 03:29:10;;;;;;;;;;;;;;;24.94;55.64;101013.53;7406883;19;1863;-60
2022/08/10 03:31:39;;;;;;;;;;;;;;;24.95;55.36;101010.66;7407991;19;1354;-60
2022/08/10 03:34:07;;;;;;;;;;;;;;;25.07;55.27;101026.53;7408124;19;1594;-60
2022/08/10 03:36:38;;;;;;;;;;;;;;;25.01;55.12;101015.38;7406873;19;1301;-60
2022/08/10 03:39:07;;;;;;;;;;;;;;;25.06;55.27;101008.63;7406790;19;1611;-60
2022/08/10 03:41:55;;;;;;;;;;;;;;;25.10;55.25;101026.22;7405178;19;1319;-55
2022/08/10 03:44:26;;;;;;;;;;;;;;;25.03;55.49;101023.34;7406414;19;1524;-61
2022/08/10 03:46:55;;;;;;;;;;;;;;;25.02;55.49;101022.47;7405339;19;1546;-61
2022/08/10 03:49:24;;;;;;;;;;;;;;;25.03;55.32;101028.75;7407016;19;1853;-60
2022/08/10 03:51:55;;;;;;;;;;;;;;;25.10;55.77;101045.16;7408015;19;1257;-61
2022/08/10 03:54:24;;;;;;;;;;;;;;;25.14;55.82;101025.69;7406331;19;1502;-60
2022/08/10 03:56:53;;;;;;;;;;;;;;;25.27;55.30;101032.47;7405437;19;1284;-60
2022/08/10 03:59:22;;;;;;;;;;;;;;;25.26;55.63;101041.63;7400545;19;1410;-60
2022/08/10 04:01:52;;;;;;;;;;;;;;;25.14;55.69;101050.03;7401818;19;1383;-60
2022/08/10 04:04:20;;;;;;;;;;;;;;;25.09;55.45;101040.75;7402932;19;1590;-60
2022/08/10 04:06:49;;;;;;;;;;;;;;;25.05;55.44;101047.50;7405284;19;1393;-60
2022/08/10 04:09:20;;;;;;;;;;;;;;;24.99;55.67;101041.78;7401738;19;1857;-60
2022/08/10 04:11:48;;;;;;;;;;;;;;;25.04;56.18;101048.53;7405964;19;1505;-60
2022/08/10 04:14:17;;;;;;;;;;;;;;;25.05;55.92;101058.34;7404407;19;1382;-60
2022/08/10 04:16:45;;;;;;;;;;;;;;;24.86;55.51;101056.81;7406070;19;1495;-60
2022/08/10 04:19:14;;;;;;;;;;;;;;;24.77;55.69;101037.00;7404870;19;1854;-60
2022/08/10 04:21:44;;;;;;;;;;;;;;;24.92;55.39;101048.84;7407977;19;1541;-61
2022/08/10 04:24:16;;;;;;;;;;;;;;;24.84;55.64;101031.78;7406156;19;1702;-60
2022/08/10 04:26:48;;;;;;;;;;;;;;;24.98;55.32;101050.88;7404858;19;1541;-59
2022/08/10 04:29:16;;;;;;;;;;;;;;;25.06;56.99;101052.75;7402832;19;1545;-60
2022/08/10 04:31:45;;;;;;;;;;;;;;;25.10;59.68;101055.97;7405917;19;1564;-59
2022/08/10 04:34:16;;;;;;;;;;;;;;;25.13;56.61;101069.19;7405616;19;1666;-59
2022/08/10 04:36:45;;;;;;;;;;;;;;;24.98;55.70;101071.69;7406573;19;1493;-59
2022/08/10 04:39:14;;;;;;;;;;;;;;;24.87;55.71;101069.31;7403627;19;1860;-60
2022/08/10 04:41:42;;;;;;;;;;;;;;;24.71;56.04;101053.91;7404195;19;1347;-60
2022/08/10 04:44:14;;;;;;;;;;;;;;;24.57;56.07;101066.19;7405872;19;1295;-58
2022/08/10 04:46:42;;;;;;;;;;;;;;;24.55;56.29;101060.13;7403111;19;1303;-57
2022/08/10 04:49:11;;;;;;;;;;;;;;;24.90;55.80;101056.28;7403961;19;1751;-57
2022/08/10 04:51:39;;;;;;;;;;;;;;;25.02;55.11;101057.66;7406182;19;1537;-59
2022/08/10 04:54:07;;;;;;;;;;;;;;;25.23;54.98;101066.31;7402325;19;1727;-58
2022/08/10 04:56:37;;;;;;;;;;;;;;;25.23;54.79;101067.19;7403661;19;1403;-59
2022/08/10 04:59:06;;;;;;;;;;;;;;;25.24;54.71;101052.63;7405487;19;1860;-59
2022/08/10 05:01:38;;;;;;;;;;;;;;;25.12;54.78;101048.53;7404078;19;1695;-59
2022/08/10 05:04:06;;;;;;;;;;;;;;;25.22;55.19;101065.47;7403989;19;1532;-58
2022/08/10 05:06:35;;;;;;;;;;;;;;;25.24;56.76;101066.16;7404115;19;1317;-57
2022/08/10 05:09:03;;;;;;;;;;;;;;;25.16;55.47;101058.00;7404146;19;1611;-59
2022/08/10 05:11:31;;;;;;;;;;;;;;;25.11;55.25;101061.22;7405689;19;1301;-55
2022/08/10 05:14:00;;;;;;;;;;;;;;;25.09;55.22;101056.97;7404547;19;1366;-57
2022/08/10 05:16:28;;;;;;;;;;;;;;;25.15;55.18;101069.84;7403777;19;1587;-58
2022/08/10 05:18:59;;;;;;;;;;;;;;;24.90;55.46;101075.22;7402141;19;1849;-58
2022/08/10 05:21:27;;;;;;;;;;;;;;;24.80;55.86;101079.97;7404105;19;1340;-58
2022/08/10 05:23:55;;;;;;;;;;;;;;;24.81;56.12;101068.13;7404720;19;1607;-58
2022/08/10 05:26:24;;;;;;;;;;;;;;;24.83;56.17;101076.94;7403959;19;1569;-58
2022/08/10 05:28:52;;;;;;;;;;;;;;;24.88;56.31;101088.09;7404024;19;1599;-58
2022/08/10 05:31:21;;;;;;;;;;;;;;;24.86;56.30;101084.69;7403930;19;1545;-58
2022/08/10 05:33:49;;;;;;;;;;;;;;;24.88;56.27;101071.84;7404581;19;1535;-58
2022/08/10 05:36:20;;;;;;;;;;;;;;;24.84;56.06;101080.47;7405418;19;1584;-58
2022/08/10 05:38:50;;;;;;;;;;;;;;;24.77;56.33;101091.09;7402361;19;1619;-58
2022/08/10 05:41:18;;;;;;;;;;;;;;;24.75;56.51;101066.06;7406283;19;1836;-57
2022/08/10 05:43:47;;;;;;;;;;;;;;;24.78;55.86;101063.06;7411675;19;1552;-58
2022/08/10 05:46:15;;;;;;;;;;;;;;;25.00;55.84;101067.81;7411776;19;1502;-58
2022/08/10 05:48:44;;;;;;;;;;;;;;;25.01;55.70;101087.59;7411679;19;1590;-58
2022/08/10 05:51:12;;;;;;;;;;;;;;;24.92;55.96;101084.03;7412238;19;1087;-58
2022/08/10 05:53:43;;;;;;;;;;;;;;;24.91;56.05;101071.53;7405817;19;1242;-58
2022/08/10 05:56:12;;;;;;;;;;;;;;;24.87;55.96;101081.00;7408835;19;1283;-58
2022/08/10 05:58:41;;;;;;;;;;;;;;;24.94;56.07;101075.75;7408855;19;1359;-59
2022/08/10 06:01:13;;;;;;;;;;;;;;;25.01;55.70;101083.03;7407589;19;1872;-59
2022/08/10 06:03:47;;;;;;;;;;;;;;;25.05;55.51;101077.28;7411720;19;1606;-58
2022/08/10 06:06:16;;;;;;;;;;;;;;;25.15;55.95;101080.69;7412365;19;984;-59
2022/08/10 06:08:47;;;;;;;;;;;;;;;25.24;55.22;101086.97;7409471;19;1730;-59
2022/08/10 06:11:17;;;;;;;;;;;;;;;25.22;55.07;101076.28;7408118;19;1616;-59
2022/08/10 06:16:28;;;;;;;;;;;;;;;25.27;55.01;101075.78;7411322;19;1592;-58
2022/08/10 06:18:56;;;;;;;;;;;;;;;25.20;54.76;101087.25;7409772;19;1513;-59
2022/08/10 06:21:25;;;;;;;;;;;;;;;25.30;55.23;101081.72;7408084;19;1845;-59
2022/08/10 06:23:56;;;;;;;;;;;;;;;25.28;54.79;101072.91;7407683;19;1584;-59
2022/08/10 06:26:25;;;;;;;;;;;;;;;25.21;54.62;101077.28;7407916;19;1352;-59
2022/08/10 06:28:55;;;;;;;;;;;;;;;25.26;54.62;101084.94;7408372;19;1235;-59
2022/08/10 06:31:25;;;;;;;;;;;;;;;25.26;54.57;101091.19;7409398;19;1351;-57
2022/08/10 06:33:56;;;;;;;;;;;;;;;25.30;54.36;101097.94;7409130;19;1271;-58
2022/08/10 06:36:24;;;;;;;;;;;;;;;25.40;54.48;101085.09;7409672;19;1398;-58
2022/08/10 06:38:57;;;;;;;;;;;;;;;25.50;54.08;101097.59;7408272;19;1288;-57
2022/08/10 06:41:27;;;;;;;;;;;;;;;25.56;53.79;101094.22;7407108;19;1829;-57
2022/08/10 06:43:59;;;;;;;;;;;;;;;25.62;54.01;101079.97;7408313;19;1457;-57
2022/08/10 06:46:29;;;;;;;;;;;;;;;25.61;54.18;101067.47;7408793;19;1487;-57
2022/08/10 06:49:00;;;;;;;;;;;;;;;25.63;53.83;101075.44;7410156;19;1303;-57
2022/08/10 06:51:31;;;;;;;;;;;;;;;25.65;53.96;101074.25;7407684;19;1735;-57
2022/08/10 06:54:04;;;;;;;;;;;;;;;25.66;53.71;101067.78;7407114;19;1346;-58
2022/08/10 06:56:35;;;;;;;;;;;;;;;25.70;53.83;101079.13;7409088;19;1355;-57
2022/08/10 06:59:07;;;;;;;;;;;;;;;25.74;53.88;101099.44;7405119;19;1299;-57
2022/08/10 07:01:37;;;;;;;;;;;;;;;25.70;53.77;101081.84;7404895;19;1852;-57
2022/08/10 07:04:08;;;;;;;;;;;;;;;25.70;54.01;101077.25;7407636;19;1358;-57
2022/08/10 07:06:37;;;;;;;;;;;;;;;25.74;53.83;101094.00;7407952;19;1340;-57
2022/08/10 07:09:11;;;;;;;;;;;;;;;25.66;54.12;101081.31;7407364;19;1366;-58
2022/08/10 07:11:40;;;;;;;;;;;;;;;25.60;54.15;101091.00;7409345;19;1197;-57
2022/08/10 07:14:09;;;;;;;;;;;;;;;25.58;54.01;101092.19;7408517;19;1871;-57
2022/08/10 07:16:41;;;;;;;;;;;;;;;25.62;54.08;101090.81;7408125;19;1556;-57
2022/08/10 07:19:10;;;;;;;;;;;;;;;25.64;54.07;101077.94;7408346;19;1528;-57
2022/08/10 07:21:39;;;;;;;;;;;;;;;25.71;53.86;101070.00;7407513;19;1863;-57
2022/08/10 07:24:11;;;;;;;;;;;;;;;25.60;53.71;101073.91;7404848;19;1493;-57
2022/08/10 07:26:41;;;;;;;;;;;;;;;25.57;53.49;101076.97;7407398;19;1545;-57
2022/08/10 07:29:09;;;;;;;;;;;;;;;25.50;53.47;101076.78;7406689;19;1299;-57
2022/08/10 07:31:38;;;;;;;;;;;;;;;25.51;53.35;101089.31;7407351;19;1374;-57
2022/08/10 07:34:08;;;;;;;;;;;;;;;25.57;53.05;101076.97;7406984;19;1265;-57
2022/08/10 07:36:37;;;;;;;;;;;;;;;25.56;53.17;101078.81;7409024;19;1548;-57
2022/08/10 07:39:06;;;;;;;;;;;;;;;25.60;53.24;101079.31;7405248;19;1439;-57
2022/08/10 07:41:41;;;;;;;;;;;;;;;25.60;53.23;101063.06;7406334;19;1851;-57
2022/08/10 07:44:11;;;;;;;;;;;;;;;25.63;53.02;101049.19;7406728;19;1386;-57
2022/08/10 07:46:42;;;;;;;;;;;;;;;25.68;52.51;101071.16;7406315;19;1344;-57
2022/08/10 07:49:13;;;;;;;;;;;;;;;25.65;52.85;101104.03;7406833;19;1291;-57
2022/08/10 07:51:42;;;;;;;;;;;;;;;25.65;52.54;101082.38;7409465;19;930;-57
2022/08/10 07:54:14;;;;;;;;;;;;;;;25.73;52.69;101082.34;7404251;19;1647;-57
2022/08/10 07:56:50;;;;;;;;;;;;;;;25.72;52.36;101067.09;7406459;19;1628;-56
2022/08/10 07:59:20;;;;;;;;;;;;;;;25.65;52.17;101074.25;7406048;19;1547;-57
2022/08/10 08:01:49;;;;;;;;;;;;;;;25.66;52.21;101056.13;7404943;19;1857;-57
2022/08/10 08:04:19;;;;;;;;;;;;;;;25.80;52.52;101071.66;7401522;19;1404;-57
2022/08/10 08:06:50;;;;;;;;;;;;;;;25.87;52.40;101061.81;7404853;19;1419;-57
2022/08/10 08:09:19;;;;;;;;;;;;;;;25.95;51.99;101063.69;7405729;19;1309;-57
2022/08/10 08:11:51;;;;;;;;;;;;;;;25.97;52.19;101065.19;7407101;19;1340;-57
2022/08/10 08:14:21;;;;;;;;;;;;;;;26.04;51.78;101040.94;7407641;19;1614;-57
2022/08/10 08:16:52;;;;;;;;;;;;;;;26.15;51.63;101047.88;7404793;19;1407;-57
2022/08/10 08:19:21;;;;;;;;;;;;;;;26.21;51.79;101068.00;7405374;19;1413;-57
2022/08/10 08:21:50;;;;;;;;;;;;;;;26.13;51.68;101055.34;7402198;19;1849;-58
2022/08/10 08:24:19;;;;;;;;;;;;;;;26.05;52.36;101037.22;7404574;19;1446;-56
2022/08/10 08:26:50;;;;;;;;;;;;;;;26.04;52.05;101038.25;7405885;19;1269;-57
2022/08/10 08:29:19;;;;;;;;;;;;;;;25.99;52.08;101049.63;7405713;19;1331;-57
2022/08/10 08:31:48;;;;;;;;;;;;;;;26.02;52.65;101056.53;7402765;19;1437;-57
2022/08/10 08:34:18;;;;;;;;;;;;;;;25.95;52.16;101069.13;7401335;19;1253;-56
2022/08/10 08:36:48;;;;;;;;;;;;;;;25.91;52.04;101062.34;7402327;19;1291;-57
2022/08/10 08:39:16;;;;;;;;;;;;;;;25.82;51.78;101047.94;7403391;19;1309;-57
2022/08/10 08:41:55;;;;;;;;;;;;;;;25.77;51.82;101047.63;7404314;19;1859;-57
2022/08/10 08:44:29;;;;;;;;;;;;;;;25.83;52.20;101051.50;7405498;19;1362;-57
2022/08/10 08:47:04;;;;;;;;;;;;;;;25.79;52.14;101048.31;7403660;19;1459;-57
2022/08/10 08:49:42;;;;;;;;;;;;;;;25.86;52.64;101045.72;7404267;19;1346;-58
2022/08/10 08:52:18;;;;;;;;;;;;;;;25.99;52.17;101048.78;7403896;19;1300;-52
2022/08/10 08:54:53;;;;;;;;;;;;;;;26.13;52.54;101039.06;7404823;19;1607;-58
2022/08/10 08:57:28;;;;;;;;;;;;;;;26.23;52.39;101047.00;7405094;19;1620;-57
2022/08/10 09:00:01;;;;;;;;;;;;;;;26.16;51.69;101034.16;7403880;19;1528;-57
2022/08/10 09:02:36;;;;;;;;;;;;;;;26.01;51.57;101057.56;7402272;19;1861;-57
2022/08/10 09:05:08;;;;;;;;;;;;;;;25.97;51.50;101032.69;7402325;19;1382;-57
2022/08/10 09:07:47;;;;;;;;;;;;;;;26.02;51.48;101059.25;7404482;19;1549;-58
2022/08/10 09:10:21;;;;;;;;;;;;;;;25.99;51.88;101052.31;7404052;19;1454;-56
2022/08/10 09:12:56;;;;;;;;;;;;;;;26.05;51.79;101047.22;7403453;19;1531;-57
2022/08/10 09:15:37;;;;;;;;;;;;;;;26.01;51.49;101051.31;7403741;19;1311;-57
2022/08/10 09:18:10;;;;;;;;;;;;;;;25.95;51.59;101025.75;7401695;19;1351;-57
2022/08/10 09:20:41;;;;;;;;;;;;;;;25.95;52.46;101042.03;7402375;19;1863;-56
2022/08/10 09:23:13;;;;;;;;;;;;;;;25.94;52.74;101029.47;7403085;19;1430;-57
2022/08/10 09:25:46;;;;;;;;;;;;;;;25.88;53.18;101030.16;7404695;19;1435;-57
2022/08/10 09:28:21;;;;;;;;;;;;;;;25.87;53.39;101050.16;7404298;19;1376;-57
2022/08/10 09:30:53;;;;;;;;;;;;;;;25.89;53.36;101037.28;7403648;19;1633;-58
2022/08/10 09:33:25;;;;;;;;;;;;;;;25.88;53.77;101036.41;7403486;19;1376;-58
2022/08/10 09:35:59;;;;;;;;;;;;;;;25.85;53.83;101022.38;7401670;19;1762;-58
2022/08/10 09:38:35;;;;;;;;;;;;;;;25.83;54.25;101046.09;7404622;19;1139;-58
2022/08/10 09:41:11;;;;;;;;;;;;;;;25.87;54.02;101032.03;7403068;19;1857;-57
2022/08/10 09:43:52;;;;;;;;;;;;;;;25.90;53.75;101025.41;7401107;19;1249;-58
2022/08/10 09:46:32;;;;;;;;;;;;;;;25.89;54.38;101038.09;7401515;19;1251;-57
2022/08/10 09:49:04;;;;;;;;;;;;;;;25.90;53.71;101033.53;7403151;19;1328;-57
2022/08/10 09:51:39;;;;;;;;;;;;;;;25.94;54.24;101029.47;7404227;19;1298;-57
2022/08/10 09:54:22;;;;;;;;;;;;;;;25.92;54.05;101020.69;7403026;19;1378;-57
2022/08/10 09:56:55;;;;;;;;;;;;;;;25.90;54.04;101012.72;7401484;19;1528;-58
2022/08/10 09:59:29;;;;;;;;;;;;;;;25.92;53.97;101021.50;7399365;19;1427;-57
2022/08/10 10:02:02;;;;;;;;;;;;;;;26.01;53.99;101035.06;7399140;19;1855;-57
2022/08/10 10:04:42;;;;;;;;;;;;;;;26.10;53.69;101029.44;7399473;19;1377;-59
2022/08/10 10:07:15;;;;;;;;;;;;;;;26.19;53.42;101022.09;7398812;19;1509;-61
2022/08/10 10:09:49;;;;;;;;;;;;;;;26.11;53.61;101025.69;7402259;19;1601;-60
2022/08/10 10:12:25;;;;;;;;;;;;;;;26.06;53.85;101011.81;7402440;19;1796;-62
2022/08/10 10:17:50;;;;;;;;;;;;;;;26.04;54.23;101024.69;7403263;19;1629;-60
2022/08/10 10:20:25;;;;;;;;;;;;;;;26.08;54.36;101019.75;7401921;19;1294;-62
2022/08/10 10:22:58;;;;;;;;;;;;;;;26.05;54.37;101014.72;7401181;19;1859;-63
2022/08/10 10:25:29;;;;;;;;;;;;;;;26.09;54.49;101026.88;7401450;19;1747;-60
2022/08/10 10:28:04;;;;;;;;;;;;;;;26.07;54.07;101018.94;7405516;19;1458;-62
2022/08/10 10:30:40;;;;;;;;;;;;;;;26.06;54.44;100992.84;7409726;19;1422;-61
2022/08/10 10:33:14;;;;;;;;;;;;;;;26.09;54.43;101002.50;7409209;19;1688;-63
2022/08/10 10:35:45;;;;;;;;;;;;;;;26.09;54.00;100995.19;7409075;19;1566;-62
2022/08/10 10:38:15;;;;;;;;;;;;;;;26.10;54.19;101007.75;7406764;19;1378;-63
2022/08/10 10:40:45;;;;;;;;;;;;;;;26.05;54.51;101001.16;7409477;19;1046;-62
2022/08/10 10:43:23;;;;;;;;;;;;;;;26.13;54.20;100993.81;7409435;19;1614;-62
2022/08/10 10:46:04;;;;;;;;;;;;;;;26.15;54.06;100999.91;7408733;19;1600;-64
2022/08/10 10:48:40;;;;;;;;;;;;;;;26.09;54.13;100987.06;7408890;19;1762;-64
2022/08/10 10:51:11;;;;;;;;;;;;;;;26.12;54.32;100983.16;7406259;19;1684;-60
2022/08/10 10:53:43;;;;;;;;;;;;;;;26.09;54.34;100978.94;7407915;19;1457;-60
2022/08/10 10:56:17;;;;;;;;;;;;;;;26.12;54.09;100983.16;7406254;19;1299;-60
2022/08/10 10:58:50;;;;;;;;;;;;;;;26.13;54.05;100980.28;7407407;19;1727;-62
2022/08/10 11:01:27;;;;;;;;;;;;;;;26.15;53.99;100988.22;7407279;19;1851;-62
2022/08/10 11:04:10;;;;;;;;;;;;;;;26.14;54.14;100983.81;7407025;19;1335;-61
2022/08/10 11:06:45;;;;;;;;;;;;;;;26.16;54.33;100974.50;7406852;19;1260;-62
2022/08/10 11:09:17;;;;;;;;;;;;;;;26.14;54.14;100971.13;7406645;19;1338;-62
2022/08/10 11:11:47;;;;;;;;;;;;;;;26.16;53.95;100979.94;7407971;19;1327;-61
2022/08/10 11:14:19;;;;;;;;;;;;;;;26.16;54.14;100977.22;7407742;19;1334;-61
2022/08/10 11:16:53;;;;;;;;;;;;;;;26.17;54.08;100967.22;7407133;19;1284;-58
2022/08/10 11:19:25;;;;;;;;;;;;;;;26.21;54.48;100975.84;7406375;19;1209;-58
2022/08/10 11:22:05;;;;;;;;;;;;;;;26.16;54.21;100958.25;7407193;19;1853;-58
2022/08/10 11:24:39;;;;;;;;;;;;;;;26.13;54.30;100974.84;7404553;19;1443;-58
2022/08/10 11:27:10;;;;;;;;;;;;;;;26.18;54.00;100980.59;7407963;19;1528;-59
2022/08/10 11:29:45;;;;;;;;;;;;;;;26.17;54.21;100962.63;7406819;19;1350;-59
2022/08/10 11:32:19;;;;;;;;;;;;;;;26.19;54.10;100952.44;7407018;19;1774;-58
2022/08/10 11:34:52;;;;;;;;;;;;;;;26.18;54.02;100950.78;7407387;19;1299;-58
2022/08/10 11:37:23;;;;;;;;;;;;;;;26.17;54.17;100951.78;7406963;19;1367;-58
2022/08/10 11:39:57;;;;;;;;;;;;;;;26.14;53.94;100949.44;7404984;19;1343;-57
2022/08/10 11:42:30;;;;;;;;;;;;;;;26.16;53.83;100941.97;7404237;19;1855;-57
2022/08/10 11:45:02;;;;;;;;;;;;;;;26.21;53.99;100960.41;7403183;19;1342;-56
2022/08/10 11:47:37;;;;;;;;;;;;;;;26.20;54.23;100942.44;7407140;19;1537;-56
2022/08/10 11:50:10;;;;;;;;;;;;;;;26.17;54.11;100934.69;7406485;19;1331;-56
2022/08/10 11:52:41;;;;;;;;;;;;;;;26.13;54.29;100933.34;7407350;19;1380;-56
2022/08/10 11:55:17;;;;;;;;;;;;;;;26.12;53.69;100935.22;7406493;19;1414;-59
2022/08/10 11:57:45;;;;;;;;;;;;;;;26.17;53.71;100930.09;7406307;19;1288;-57
2022/08/10 12:00:12;;;;;;;;;;;;;;;26.16;53.63;100932.97;7407686;19;1378;-56
2022/08/10 12:02:46;;;;;;;;;;;;;;;26.22;53.30;100939.56;7404915;19;1843;-58
2022/08/10 12:05:18;;;;;;;;;;;;;;;26.21;52.73;100921.63;7407054;19;1531;-57
2022/08/10 12:07:48;;;;;;;;;;;;;;;26.20;51.33;100923.47;7407154;19;1536;-58
2022/08/10 12:10:17;;;;;;;;;;;;;;;26.24;51.56;100921.25;7404875;19;1675;-58
2022/08/10 12:12:48;;;;;;;;;;;;;;;26.33;52.45;100931.03;7399266;19;1404;-55
2022/08/10 12:15:19;;;;;;;;;;;;;;;26.31;52.15;100917.63;7403165;19;1212;-54
2022/08/10 12:17:52;;;;;;;;;;;;;;;26.34;51.79;100932.69;7404430;19;1236;-56
2022/08/10 12:20:26;;;;;;;;;;;;;;;26.25;52.68;100920.25;7404039;19;1282;-59
2022/08/10 12:22:57;;;;;;;;;;;;;;;26.14;50.76;100905.22;7404737;19;1861;-56
2022/08/10 12:25:29;;;;;;;;;;;;;;;26.10;52.55;100903.88;7404140;19;1774;-56
2022/08/10 12:28:03;;;;;;;;;;;;;;;26.12;52.55;100913.56;7404412;19;1780;-56
2022/08/10 12:30:34;;;;;;;;;;;;;;;26.19;52.36;100914.50;7403430;19;1271;-57
2022/08/10 12:33:09;;;;;;;;;;;;;;;26.24;52.33;100913.13;7402815;19;1634;-59
2022/08/10 12:35:39;;;;;;;;;;;;;;;26.21;52.37;100910.78;7403919;19;1236;-58
2022/08/10 12:38:10;;;;;;;;;;;;;;;26.15;50.97;100905.03;7405061;19;1615;-59
2022/08/10 12:40:41;;;;;;;;;;;;;;;26.17;51.90;100911.13;7405538;19;1571;-58
2022/08/10 12:43:12;;;;;;;;;;;;;;;26.19;52.99;100905.53;7404761;19;1896;-59
2022/08/10 12:45:43;;;;;;;;;;;;;;;26.23;52.85;100897.91;7405264;19;1679;-59
2022/08/10 12:48:30;;;;;;;;;;;;;;;26.19;52.75;100910.97;7403510;19;1451;-59
2022/08/10 12:51:00;;;;;;;;;;;;;;;26.13;51.02;100906.25;7401845;19;1481;-59
2022/08/10 12:53:36;;;;;;;;;;;;;;;26.17;51.55;100908.41;7406646;19;1632;-57
2022/08/10 12:56:06;;;;;;;;;;;;;;;26.23;51.50;100908.75;7405194;19;1684;-58
2022/08/10 12:58:35;;;;;;;;;;;;;;;26.19;52.15;100898.25;7404183;19;1553;-65
2022/08/10 13:01:07;;;;;;;;;;;;;;;26.30;52.63;100893.41;7402816;19;1454;-60
2022/08/10 13:03:39;;;;;;;;;;;;;;;26.26;51.99;100902.94;7402494;19;1866;-58
2022/08/10 13:06:08;;;;;;;;;;;;;;;26.23;52.46;100898.72;7405972;19;1674;-59
2022/08/10 13:11:19;;;;;;;;;;;;;;;26.24;52.75;100880.59;7406176;19;1359;-59
2022/08/10 13:13:49;;;;;;;;;;;;;;;26.19;52.98;100890.09;7404314;19;1699;-59
2022/08/10 13:16:18;;;;;;;;;;;;;;;26.17;52.93;100889.44;7405031;19;1527;-59